Time;durP1;ratioP1;P1;durP2;ratioP2;P2;SDS_P1;SDS_P2;PMS_P1;PMS_P2;Temp;Humidity;BMP_temperature;BMP_pressure;BME280_temperature;BME280_humidity;BME280_pressure;Samples;Min_cycle;Max_cycle;Signal;HPM_P1;HPM_P2
2021/10/15 00:00:25;;;;;;;6.70;5.07;;;;;;;7.56;71.56;97110.50;5016548;28;20046;-76
2021/10/15 00:02:55;;;;;;;6.75;4.90;;;;;;;7.60;72.06;97106.66;5016550;28;20054;-76
2021/10/15 00:05:22;;;;;;;7.97;5.03;;;;;;;7.65;71.89;97104.41;5016536;28;20061;-75
2021/10/15 00:07:51;;;;;;;5.43;4.90;;;;;;;7.64;71.54;97102.78;5016365;28;20054;-76
2021/10/15 00:10:18;;;;;;;8.07;4.70;;;;;;;7.66;71.54;97102.66;5016379;28;20401;-75
2021/10/15 00:12:46;;;;;;;6.97;4.40;;;;;;;7.65;71.44;97094.03;5016351;28;20061;-76
2021/10/15 00:15:13;;;;;;;6.75;4.70;;;;;;;7.69;72.26;97094.56;5016121;28;20528;-76
2021/10/15 00:17:41;;;;;;;8.68;5.20;;;;;;;7.72;71.97;97100.28;5016279;28;20050;-76
2021/10/15 00:20:10;;;;;;;6.13;4.75;;;;;;;7.77;72.44;97102.41;5032677;28;20053;-76
2021/10/15 00:22:37;;;;;;;6.38;4.70;;;;;;;7.78;71.26;97099.66;5038194;28;20041;-76
2021/10/15 00:25:08;;;;;;;7.32;4.88;;;;;;;7.77;71.50;97103.22;5036654;28;20508;-75
2021/10/15 00:27:35;;;;;;;8.02;4.90;;;;;;;7.78;71.28;97102.25;5020410;28;20519;-76
2021/10/15 00:30:04;;;;;;;5.68;4.57;;;;;;;7.81;71.74;97099.34;5018486;28;20050;-76
2021/10/15 00:32:31;;;;;;;5.20;4.70;;;;;;;7.89;72.89;97095.16;5017609;28;20419;-76
2021/10/15 00:34:59;;;;;;;6.97;5.05;;;;;;;7.90;71.11;97094.22;5016531;28;20412;-75
2021/10/15 00:37:26;;;;;;;6.78;4.78;;;;;;;7.88;71.61;97089.16;5016576;28;20400;-76
2021/10/15 00:39:54;;;;;;;5.93;4.97;;;;;;;7.90;72.36;97086.44;5015953;28;20049;-76
2021/10/15 00:42:22;;;;;;;6.63;4.93;;;;;;;7.94;71.53;97087.75;5015719;28;20045;-76
2021/10/15 00:44:50;;;;;;;6.95;4.80;;;;;;;7.92;71.60;97079.28;5015797;28;20424;-76
2021/10/15 00:47:17;;;;;;;6.18;4.68;;;;;;;7.91;71.59;97081.06;5015615;28;20065;-75
2021/10/15 00:49:45;;;;;;;5.85;4.75;;;;;;;7.95;71.88;97079.78;5015712;28;20529;-76
2021/10/15 00:52:12;;;;;;;7.00;4.95;;;;;;;7.97;71.61;97077.84;5015587;28;20503;-75
2021/10/15 00:54:40;;;;;;;7.97;4.80;;;;;;;7.98;70.46;97078.66;5015922;28;20077;-75
2021/10/15 00:57:10;;;;;;;6.07;4.85;;;;;;;8.00;73.00;97072.38;5015456;28;20049;-75
2021/10/15 00:59:39;;;;;;;6.85;5.22;;;;;;;8.02;71.73;97070.44;5015325;28;20054;-75
2021/10/15 01:02:07;;;;;;;9.27;5.65;;;;;;;8.01;71.03;97062.78;5015602;28;20057;-76
2021/10/15 01:04:35;;;;;;;6.68;5.80;;;;;;;8.00;71.16;97061.13;5015638;28;20050;-76
2021/10/15 01:07:04;;;;;;;9.43;5.78;;;;;;;8.03;72.79;97060.84;5015333;28;20526;-75
2021/10/15 01:09:32;;;;;;;10.02;5.68;;;;;;;8.06;72.40;97060.53;5015134;28;20054;-76
2021/10/15 01:12:00;;;;;;;6.85;5.07;;;;;;;8.08;71.91;97052.59;5015138;28;20057;-75
2021/10/15 01:14:29;;;;;;;7.65;5.82;;;;;;;8.04;70.62;97049.47;5015233;28;20515;-75
2021/10/15 01:17:02;;;;;;;6.72;5.68;;;;;;;8.03;72.35;97053.06;5015314;28;20104;-75
2021/10/15 01:19:29;;;;;;;7.50;5.50;;;;;;;8.06;72.13;97042.34;5015141;28;20424;-75
2021/10/15 01:22:01;;;;;;;9.00;5.78;;;;;;;8.05;70.65;97043.31;5015175;28;20076;-76
2021/10/15 01:24:28;;;;;;;6.70;5.43;;;;;;;8.04;71.23;97036.47;5015144;28;20054;-75
2021/10/15 01:26:56;;;;;;;6.65;4.95;;;;;;;8.08;71.42;97037.00;5014886;28;20050;-76
2021/10/15 01:29:26;;;;;;;7.18;6.25;;;;;;;8.09;71.54;97033.41;5030420;28;20042;-76
2021/10/15 01:31:53;;;;;;;6.93;5.20;;;;;;;8.11;71.00;97036.69;5036959;28;20060;-76
2021/10/15 01:34:21;;;;;;;6.82;5.82;;;;;;;8.15;72.57;97032.78;5036360;28;20050;-76
2021/10/15 01:36:48;;;;;;;7.63;5.80;;;;;;;8.17;70.95;97031.66;5036327;28;20037;-76
2021/10/15 01:39:17;;;;;;;8.48;5.55;;;;;;;8.19;71.67;97029.72;5035903;28;20053;-76
2021/10/15 01:41:45;;;;;;;8.98;5.32;;;;;;;8.23;73.09;97030.25;5035072;28;20069;-76
2021/10/15 01:44:12;;;;;;;9.18;5.38;;;;;;;8.25;72.55;97028.31;5020055;28;20057;-76
2021/10/15 01:46:40;;;;;;;8.18;5.55;;;;;;;8.18;70.51;97022.91;5014783;28;20057;-75
2021/10/15 01:49:08;;;;;;;5.95;4.72;;;;;;;8.15;71.73;97014.59;5014343;28;20064;-76
2021/10/15 01:51:35;;;;;;;7.65;5.10;;;;;;;8.15;70.66;97018.00;5014644;28;20046;-76
2021/10/15 01:54:03;;;;;;;7.35;5.32;;;;;;;8.14;72.04;97013.00;5014285;28;20058;-76
2021/10/15 01:56:32;;;;;;;6.40;5.22;;;;;;;8.13;71.68;97016.53;5017170;28;20053;-76
2021/10/15 01:58:59;;;;;;;6.32;5.30;;;;;;;8.12;72.43;97010.53;5025058;28;20042;-76
2021/10/15 02:01:27;;;;;;;7.00;5.20;;;;;;;8.14;72.68;97013.81;5029618;28;20061;-76
2021/10/15 02:03:55;;;;;;;5.85;5.18;;;;;;;8.16;73.54;97009.25;5036225;28;20046;-76
2021/10/15 02:06:22;;;;;;;7.90;5.55;;;;;;;8.14;72.11;97003.41;5035053;28;20064;-76
2021/10/15 02:08:50;;;;;;;8.05;5.65;;;;;;;8.13;72.78;97004.38;5034551;28;20130;-75
2021/10/15 02:11:17;;;;;;;7.35;6.30;;;;;;;8.10;70.63;96994.28;5033101;28;20073;-75
2021/10/15 02:13:46;;;;;;;7.60;5.57;;;;;;;8.04;70.33;96990.53;5015808;28;20057;-76
2021/10/15 02:16:13;;;;;;;9.40;6.65;;;;;;;7.98;69.97;96987.72;5014294;28;20049;-76
2021/10/15 02:18:41;;;;;;;10.27;6.57;;;;;;;7.92;70.24;96985.78;5013528;28;20049;-76
2021/10/15 02:21:09;;;;;;;8.43;6.15;;;;;;;7.87;69.51;96980.22;5013805;28;20135;-76
2021/10/15 02:23:36;;;;;;;8.77;6.55;;;;;;;7.78;69.34;96977.59;5013955;28;20054;-75
2021/10/15 02:26:04;;;;;;;7.82;5.90;;;;;;;7.72;69.41;96975.63;5014046;28;20427;-76
2021/10/15 02:28:31;;;;;;;9.30;5.82;;;;;;;7.61;68.87;96974.09;5013894;28;20050;-76
2021/10/15 02:31:00;;;;;;;9.30;5.80;;;;;;;7.51;69.59;96977.75;5013599;28;20053;-76
2021/10/15 02:33:28;;;;;;;8.23;7.00;;;;;;;7.45;69.44;96968.78;5013743;28;20128;-76
2021/10/15 02:35:55;;;;;;;10.27;7.00;;;;;;;7.37;69.38;96966.97;5013791;28;20423;-76
2021/10/15 02:38:23;;;;;;;7.82;6.68;;;;;;;7.33;69.74;96963.06;5013404;28;20503;-76
2021/10/15 02:40:50;;;;;;;7.93;6.00;;;;;;;7.33;69.89;96963.06;5013407;28;20050;-76
2021/10/15 02:43:18;;;;;;;7.90;6.20;;;;;;;7.35;69.79;96958.53;5013868;28;20050;-76
2021/10/15 02:45:45;;;;;;;8.05;5.28;;;;;;;7.38;70.35;96960.00;5013698;28;20045;-76
2021/10/15 02:48:14;;;;;;;8.15;5.82;;;;;;;7.39;70.57;96964.22;5013412;28;20056;-76
2021/10/15 02:50:42;;;;;;;8.35;5.72;;;;;;;7.40;69.82;96961.47;5013229;28;20422;-75
2021/10/15 02:53:09;;;;;;;6.45;4.97;;;;;;;7.41;70.44;96955.31;5019239;28;20504;-75
2021/10/15 02:55:37;;;;;;;6.53;5.18;;;;;;;7.42;70.74;96954.34;5020839;28;20519;-76
2021/10/15 02:58:04;;;;;;;6.85;4.90;;;;;;;7.45;70.57;96949.81;5020918;28;20052;-75
2021/10/15 03:00:32;;;;;;;6.45;4.95;;;;;;;7.47;70.30;96955.69;5015281;28;20060;-76
2021/10/15 03:02:59;;;;;;;5.80;5.03;;;;;;;7.47;70.54;96945.28;5013857;28;20458;-76
2021/10/15 03:05:28;;;;;;;6.68;5.45;;;;;;;7.51;72.53;96946.63;5013382;28;20077;-76
2021/10/15 03:07:56;;;;;;;8.05;5.03;;;;;;;7.55;71.67;96937.56;5013332;28;20054;-76
2021/10/15 03:10:24;;;;;;;7.75;5.25;;;;;;;7.58;71.57;96939.84;5011974;28;20050;-76
2021/10/15 03:12:51;;;;;;;7.43;5.10;;;;;;;7.58;71.55;96934.63;5013024;28;20065;-76
2021/10/15 03:15:19;;;;;;;6.35;5.18;;;;;;;7.60;72.29;96946.50;5012998;28;20049;-76
2021/10/15 03:17:46;;;;;;;6.78;4.85;;;;;;;7.62;72.43;96939.38;5013516;28;20496;-76
2021/10/15 03:20:13;;;;;;;8.95;5.47;;;;;;;7.62;70.49;96938.56;5012672;28;20535;-76
2021/10/15 03:22:42;;;;;;;9.75;5.57;;;;;;;7.55;69.46;96942.75;5013035;28;20046;-76
2021/10/15 03:25:10;;;;;;;5.75;5.03;;;;;;;7.50;69.09;96939.78;5013144;28;20046;-75
2021/10/15 03:27:37;;;;;;;8.57;5.03;;;;;;;7.46;68.84;96935.88;5012963;28;20065;-76
2021/10/15 03:30:07;;;;;;;6.57;4.80;;;;;;;7.41;68.75;96942.34;5012876;28;20065;-76
2021/10/15 03:32:34;;;;;;;6.78;4.68;;;;;;;7.35;68.43;96937.78;5013148;28;20066;-76
2021/10/15 03:35:02;;;;;;;6.88;5.47;;;;;;;7.35;68.66;96937.78;5012980;28;20057;-76
2021/10/15 03:37:29;;;;;;;6.65;5.38;;;;;;;7.37;68.61;96928.06;5012863;28;20052;-76
2021/10/15 03:39:58;;;;;;;6.55;4.60;;;;;;;7.35;67.84;96926.59;5012983;28;20050;-76
2021/10/15 03:42:26;;;;;;;5.57;4.95;;;;;;;7.33;68.85;96929.31;5013869;28;20057;-76
2021/10/15 03:44:53;;;;;;;6.88;4.90;;;;;;;7.35;69.47;96927.38;5014047;28;20058;-76
2021/10/15 03:47:21;;;;;;;6.60;4.63;;;;;;;7.37;68.78;96927.25;5013192;28;20053;-76
2021/10/15 03:49:49;;;;;;;5.22;4.25;;;;;;;7.40;70.38;96929.53;5012773;28;20042;-76
2021/10/15 03:52:16;;;;;;;7.55;4.78;;;;;;;7.45;70.96;96931.66;5012861;28;20069;-76
2021/10/15 03:54:44;;;;;;;5.72;4.88;;;;;;;7.48;70.92;96933.94;5012596;28;20054;-75
2021/10/15 03:57:13;;;;;;;6.68;4.28;;;;;;;7.50;70.45;96929.41;5013056;28;20050;-75
2021/10/15 03:59:42;;;;;;;6.05;4.75;;;;;;;7.51;70.59;96928.44;5012552;28;20046;-75
2021/10/15 04:02:10;;;;;;;6.55;5.30;;;;;;;7.55;71.45;96920.19;5032538;22;20053;-77
2021/10/15 04:04:37;;;;;;;4.97;4.32;;;;;;;7.60;71.86;96912.75;5012567;28;20053;-77
2021/10/15 04:07:05;;;;;;;5.68;4.90;;;;;;;7.62;70.93;96910.00;5012299;28;20076;-77
2021/10/15 04:09:32;;;;;;;8.57;5.10;;;;;;;7.64;71.51;96908.06;5012268;28;20072;-77
2021/10/15 04:12:00;;;;;;;6.13;4.35;;;;;;;7.67;71.74;96901.75;5009833;28;20046;-77
2021/10/15 04:14:29;;;;;;;7.80;4.85;;;;;;;7.65;70.25;96904.47;5003100;28;20043;-77
2021/10/15 04:16:56;;;;;;;5.10;4.10;;;;;;;7.62;70.97;96902.22;4993107;28;20827;-78
2021/10/15 04:19:24;;;;;;;7.00;4.82;;;;;;;7.63;71.65;96903.81;4992716;28;20415;-77
2021/10/15 04:21:51;;;;;;;4.88;4.30;;;;;;;7.63;72.13;96903.81;4993702;28;20046;-77
2021/10/15 04:24:19;;;;;;;6.72;4.85;;;;;;;7.60;70.11;96898.97;4996179;28;20496;-78
2021/10/15 04:26:46;;;;;;;13.32;7.60;;;;;;;7.57;70.30;96894.88;4996995;28;20080;-78
2021/10/15 04:29:14;;;;;;;10.80;7.32;;;;;;;7.51;68.60;96884.31;4995997;28;20042;-79
2021/10/15 04:31:42;;;;;;;6.25;4.20;;;;;;;7.43;68.04;96880.72;4996304;28;20050;-80
2021/10/15 04:34:10;;;;;;;6.18;4.75;;;;;;;7.41;68.05;96895.63;4995772;28;20046;-79
2021/10/15 04:36:37;;;;;;;6.28;4.20;;;;;;;7.41;67.96;96882.66;4996142;28;20065;-78
2021/10/15 04:39:05;;;;;;;6.28;4.38;;;;;;;7.38;67.59;96880.34;4995726;28;20155;-79
2021/10/15 04:41:32;;;;;;;5.95;4.45;;;;;;;7.38;67.99;96884.75;4995917;28;20066;-78
2021/10/15 04:44:00;;;;;;;5.90;4.30;;;;;;;7.34;68.54;96879.03;4996173;28;20061;-80
2021/10/15 04:46:27;;;;;;;5.78;4.45;;;;;;;7.33;69.09;96868.81;4995872;28;20046;-79
2021/10/15 04:48:57;;;;;;;6.65;4.40;;;;;;;7.34;70.56;96873.84;4996122;28;20046;-80
2021/10/15 04:51:24;;;;;;;5.55;4.05;;;;;;;7.36;68.88;96871.91;4994443;28;20057;-80
2021/10/15 04:53:52;;;;;;;8.15;4.22;;;;;;;7.36;69.31;96871.91;4993773;28;20057;-80
2021/10/15 04:56:19;;;;;;;9.68;4.30;;;;;;;7.36;69.85;96864.13;4993651;28;20057;-80
2021/10/15 04:58:46;;;;;;;6.05;4.05;;;;;;;7.37;68.40;96857.97;4993430;28;20066;-80
2021/10/15 05:01:14;;;;;;;5.65;4.32;;;;;;;7.34;67.76;96857.47;4996559;28;20058;-80
2021/10/15 05:03:42;;;;;;;7.22;4.53;;;;;;;7.30;67.66;96856.94;4996065;28;20069;-80
2021/10/15 05:06:11;;;;;;;8.00;5.18;;;;;;;7.26;67.81;96858.25;4995949;28;20447;-81
2021/10/15 05:08:44;;;;;;;8.65;4.93;;;;;;;7.23;68.53;96855.94;4995444;28;20046;-80
2021/10/15 05:11:14;;;;;;;9.25;5.13;;;;;;;7.22;69.39;96849.16;5001480;28;20212;-80
2021/10/15 05:13:42;;;;;;;8.02;4.65;;;;;;;7.24;69.39;96852.41;4996691;28;20058;-80
2021/10/15 05:16:09;;;;;;;6.28;4.18;;;;;;;7.27;70.36;96851.28;4996547;28;20050;-80
2021/10/15 05:18:37;;;;;;;13.20;5.55;;;;;;;7.26;68.75;96845.28;4996196;28;20058;-80
2021/10/15 05:21:04;;;;;;;9.15;5.68;;;;;;;7.27;70.01;96846.88;4995545;28;20051;-80
2021/10/15 05:23:33;;;;;;;10.48;5.35;;;;;;;7.27;69.69;96846.88;4995414;28;20046;-80
2021/10/15 05:26:01;;;;;;;11.48;5.85;;;;;;;7.30;69.89;96845.75;4995518;28;20046;-78
2021/10/15 05:28:28;;;;;;;13.55;6.35;;;;;;;7.26;68.39;96844.44;4995054;28;20061;-81
2021/10/15 05:30:57;;;;;;;10.50;6.60;;;;;;;7.19;68.13;96841.66;4995186;28;20053;-81
2021/10/15 05:33:24;;;;;;;9.38;5.25;;;;;;;7.13;67.63;96839.69;4993897;28;20057;-81
2021/10/15 05:35:52;;;;;;;8.18;5.38;;;;;;;7.08;68.04;96836.72;4994830;28;20054;-80
2021/10/15 05:38:19;;;;;;;12.75;6.05;;;;;;;7.07;68.23;96827.34;4994666;28;20047;-81
2021/10/15 05:40:48;;;;;;;10.77;7.05;;;;;;;7.06;68.15;96830.88;4994253;28;20054;-81
2021/10/15 05:43:16;;;;;;;10.68;5.78;;;;;;;7.04;68.01;96830.22;4995267;28;20057;-81
2021/10/15 05:45:43;;;;;;;9.25;5.95;;;;;;;7.03;67.61;96832.00;4994767;28;20054;-80
2021/10/15 05:48:11;;;;;;;9.20;4.93;;;;;;;7.04;68.81;96825.88;4994773;28;20050;-81
2021/10/15 05:50:39;;;;;;;10.50;5.30;;;;;;;7.09;67.99;96828.81;4994617;28;20054;-78
2021/10/15 05:53:08;;;;;;;6.68;4.50;;;;;;;7.11;67.89;96831.25;4994420;28;20540;-78
2021/10/15 05:55:43;;;;;;;9.38;4.80;;;;;;;7.12;67.51;96835.47;4994858;28;20073;-78
2021/10/15 06:00:49;;;;;;;8.13;4.63;;;;;;;7.13;66.99;96837.09;4994635;28;20046;-78
2021/10/15 06:03:21;;;;;;;6.10;4.10;;;;;;;7.14;67.88;96836.13;4994676;28;20073;-78
2021/10/15 06:14:17;;;;;;;8.20;4.65;;;;;;;7.26;67.85;96845.28;4995192;28;20050;-78
2021/10/15 06:16:48;;;;;;;5.82;4.15;;;;;;;7.31;67.60;96843.03;4995583;28;20456;-78
2021/10/15 06:19:18;;;;;;;9.73;4.65;;;;;;;7.39;67.50;96855.22;4995186;28;20061;-78
2021/10/15 06:21:46;;;;;;;6.07;4.43;;;;;;;7.49;68.83;96849.91;4994302;28;20042;-78
2021/10/15 06:24:13;;;;;;;11.30;4.15;;;;;;;7.57;67.59;96853.34;4999865;28;20050;-78
2021/10/15 06:26:41;;;;;;;8.85;5.05;;;;;;;7.66;67.15;96856.78;5011324;28;20054;-79
2021/10/15 06:29:10;;;;;;;7.57;4.68;;;;;;;7.75;66.46;96852.44;5012860;28;20058;-78
2021/10/15 06:31:40;;;;;;;11.52;5.10;;;;;;;7.81;66.39;96850.03;5002877;28;20050;-78
2021/10/15 06:34:07;;;;;;;6.47;4.35;;;;;;;7.89;66.13;96853.59;4998526;28;20129;-78
2021/10/15 06:36:35;;;;;;;9.30;5.07;;;;;;;7.94;65.57;96853.97;4994533;28;20130;-78
2021/10/15 06:39:03;;;;;;;7.43;5.00;;;;;;;8.01;65.99;96852.34;5005469;28;20054;-78
2021/10/15 06:41:31;;;;;;;8.20;5.28;;;;;;;8.11;65.42;96855.63;5004396;28;20058;-78
2021/10/15 06:43:59;;;;;;;7.25;4.22;;;;;;;8.18;65.23;96856.59;4994169;28;20496;-78
2021/10/15 06:46:27;;;;;;;7.45;5.07;;;;;;;8.21;64.95;96858.88;4993578;28;20054;-78
2021/10/15 06:48:55;;;;;;;7.57;4.50;;;;;;;8.30;65.31;96858.91;4993674;28;20195;-78
2021/10/15 06:51:22;;;;;;;6.28;4.53;;;;;;;8.42;66.37;96862.84;4993607;28;20057;-78
2021/10/15 06:53:50;;;;;;;7.32;5.13;;;;;;;8.56;65.46;96862.19;4993547;28;20062;-78
2021/10/15 06:56:17;;;;;;;7.22;4.88;;;;;;;8.78;67.36;96860.72;4993841;28;20057;-78
2021/10/15 06:58:45;;;;;;;5.85;4.82;;;;;;;8.97;65.43;96856.16;4993442;28;20046;-78
2021/10/15 07:01:12;;;;;;;4.85;4.35;;;;;;;9.16;67.34;96861.00;4993421;28;20054;-78
2021/10/15 07:03:41;;;;;;;10.00;4.75;;;;;;;9.30;64.90;96862.09;4993475;28;20064;-78
2021/10/15 07:06:09;;;;;;;9.23;4.93;;;;;;;9.34;63.59;96862.59;4993478;28;20061;-78
2021/10/15 07:08:36;;;;;;;6.28;4.47;;;;;;;9.37;65.31;96872.66;4993553;28;20057;-78
2021/10/15 07:11:04;;;;;;;10.63;5.32;;;;;;;9.43;65.77;96878.00;4993541;28;20170;-78
2021/10/15 07:13:32;;;;;;;8.90;6.00;;;;;;;9.50;65.52;96878.13;4993454;28;20050;-78
2021/10/15 07:16:00;;;;;;;9.27;5.50;;;;;;;9.56;64.32;96881.88;4993229;28;20057;-78
2021/10/15 07:18:27;;;;;;;11.80;6.00;;;;;;;9.63;64.45;96881.03;4993293;28;20405;-78
2021/10/15 07:20:56;;;;;;;7.82;6.30;;;;;;;9.65;63.28;96878.25;4992903;28;20049;-78
2021/10/15 07:23:23;;;;;;;9.25;6.18;;;;;;;9.64;63.09;96874.00;4993507;28;20053;-78
2021/10/15 07:25:51;;;;;;;7.78;5.57;;;;;;;9.66;62.86;96872.06;4993362;28;20049;-79
2021/10/15 07:28:19;;;;;;;12.23;6.25;;;;;;;9.66;62.45;96872.88;4993307;28;20050;-78
2021/10/15 07:30:47;;;;;;;8.68;5.38;;;;;;;9.63;62.46;96873.22;4993143;28;20047;-78
2021/10/15 07:33:14;;;;;;;9.32;7.65;;;;;;;9.57;62.37;96883.50;4993253;28;20050;-79
2021/10/15 07:35:42;;;;;;;10.85;8.18;;;;;;;9.61;62.65;96879.56;4993105;28;20050;-78
2021/10/15 07:38:11;;;;;;;10.55;8.30;;;;;;;9.73;62.33;96883.44;4993050;28;20054;-79
2021/10/15 07:40:39;;;;;;;11.48;7.28;;;;;;;9.83;62.15;96871.00;4992865;28;20050;-78
2021/10/15 07:43:07;;;;;;;16.33;7.38;;;;;;;10.00;62.10;96878.75;4992936;28;20046;-79
2021/10/15 07:45:34;;;;;;;16.27;8.32;;;;;;;10.19;61.81;96872.28;4993100;28;20428;-78
2021/10/15 07:48:02;;;;;;;10.45;6.72;;;;;;;10.39;61.31;96872.69;4993123;28;20054;-79
2021/10/15 07:50:29;;;;;;;12.82;6.75;;;;;;;10.60;60.80;96875.44;4992781;28;20476;-79
2021/10/15 07:52:57;;;;;;;8.70;6.55;;;;;;;10.83;60.83;96875.44;4992849;28;20050;-79
2021/10/15 07:55:26;;;;;;;9.48;6.28;;;;;;;11.07;59.81;96870.97;4992842;28;20050;-78
2021/10/15 07:57:54;;;;;;;6.50;5.30;;;;;;;11.33;60.00;96871.38;4995515;28;20456;-79
2021/10/15 08:00:22;;;;;;;7.80;5.55;;;;;;;11.60;60.99;96873.53;4996156;28;20528;-79
2021/10/15 08:02:50;;;;;;;9.00;5.65;;;;;;;11.84;58.89;96881.06;4996386;28;20054;-79
2021/10/15 08:05:19;;;;;;;8.38;5.38;;;;;;;12.11;58.68;96878.78;4996935;28;20054;-79
2021/10/15 08:07:46;;;;;;;7.90;5.13;;;;;;;12.38;60.45;96873.84;4996495;28;20057;-79
2021/10/15 08:10:14;;;;;;;5.25;4.38;;;;;;;12.59;58.33;96881.69;4996325;28;20053;-79
2021/10/15 08:12:43;;;;;;;5.82;4.55;;;;;;;12.69;55.74;96882.19;4996514;28;20081;-79
2021/10/15 08:15:13;;;;;;;7.00;4.95;;;;;;;12.84;59.34;96886.56;4996287;28;20065;-79
2021/10/15 08:17:42;;;;;;;5.05;4.55;;;;;;;12.99;56.01;96884.66;4996717;28;20053;-79
2021/10/15 08:20:11;;;;;;;5.88;4.13;;;;;;;13.02;55.36;96883.47;4996487;28;20054;-79
2021/10/15 08:22:39;;;;;;;5.78;4.30;;;;;;;13.09;54.40;96882.50;4996244;28;20057;-79
2021/10/15 08:25:23;;;;;;;7.75;4.03;;;;;;;13.27;53.97;96883.84;4996642;28;20062;-79
2021/10/15 08:27:52;;;;;;;3.92;3.50;;;;;;;13.38;52.61;96888.56;4996518;28;20054;-79
2021/10/15 08:30:19;;;;;;;5.60;4.50;;;;;;;13.50;55.57;96884.41;4996400;28;20054;-79
2021/10/15 08:32:47;;;;;;;5.82;5.25;;;;;;;13.65;55.85;96886.13;4996426;28;20050;-79
2021/10/15 08:35:14;;;;;;;7.85;5.13;;;;;;;13.76;55.51;96888.19;4997894;28;20448;-79
2021/10/15 08:37:42;;;;;;;7.25;5.07;;;;;;;13.95;56.96;96887.47;4996521;28;20343;-79
2021/10/15 08:40:10;;;;;;;8.40;5.47;;;;;;;14.26;54.83;96887.97;4995663;28;20054;-79
2021/10/15 08:42:38;;;;;;;6.63;4.95;;;;;;;14.59;53.20;96891.50;4996037;28;20428;-79
2021/10/15 08:45:08;;;;;;;8.07;4.65;;;;;;;15.02;53.06;96892.94;4996279;28;20047;-79
2021/10/15 08:47:36;;;;;;;4.30;3.63;;;;;;;15.59;53.40;96894.09;4996587;28;20504;-79
2021/10/15 08:50:24;;;;;;;8.63;4.85;;;;;;;16.35;51.40;96908.38;4996389;28;20389;-79
2021/10/15 08:52:52;;;;;;;6.57;3.92;;;;;;;16.75;46.53;96895.00;4996812;28;20074;-79
2021/10/15 08:55:21;;;;;;;7.10;4.53;;;;;;;16.79;45.55;96896.19;4996710;28;20128;-79
2021/10/15 08:57:52;;;;;;;5.65;4.35;;;;;;;16.86;45.72;96893.53;4996536;28;20060;-79
2021/10/15 09:00:33;;;;;;;5.97;4.40;;;;;;;16.97;47.93;96890.19;4996522;28;20153;-79
2021/10/15 09:03:13;;;;;;;7.75;4.93;;;;;;;17.18;45.58;96891.63;4995672;28;20054;-80
2021/10/15 09:05:43;;;;;;;7.40;5.40;;;;;;;17.40;45.29;96891.22;4995914;28;20074;-79
2021/10/15 09:08:11;;;;;;;6.88;4.60;;;;;;;17.66;48.29;96890.16;4994400;28;20050;-79
2021/10/15 09:10:39;;;;;;;6.72;4.90;;;;;;;17.96;45.12;96886.81;4995332;28;20042;-80
2021/10/15 09:13:15;;;;;;;7.38;5.10;;;;;;;18.15;42.95;96891.06;4995490;28;20043;-79
2021/10/15 09:15:45;;;;;;;5.50;4.78;;;;;;;18.31;42.38;96889.63;4995583;28;20496;-79
2021/10/15 09:18:14;;;;;;;11.85;4.88;;;;;;;18.49;42.27;96892.19;4995148;28;20129;-79
2021/10/15 09:20:44;;;;;;;4.50;3.95;;;;;;;18.66;44.56;96892.38;4995219;28;20483;-80
2021/10/15 09:23:12;;;;;;;7.35;3.55;;;;;;;18.83;46.01;96887.28;4995054;28;20050;-80
2021/10/15 09:25:43;;;;;;;4.40;2.92;;;;;;;18.85;42.62;96885.22;4995337;28;20054;-80
2021/10/15 09:28:16;;;;;;;3.30;2.70;;;;;;;18.71;43.75;96894.34;4995214;28;20058;-80
2021/10/15 09:30:49;;;;;;;3.72;2.95;;;;;;;18.59;41.74;96890.88;4996074;28;20061;-80
2021/10/15 09:33:18;;;;;;;3.15;2.67;;;;;;;18.63;44.75;96884.09;4995986;28;20073;-80
2021/10/15 09:35:46;;;;;;;4.18;3.15;;;;;;;18.75;41.81;96884.94;4996034;28;20047;-80
2021/10/15 09:38:14;;;;;;;4.47;3.30;;;;;;;18.97;41.20;96882.59;4996354;28;20505;-80
2021/10/15 09:40:44;;;;;;;7.22;4.60;;;;;;;19.37;40.72;96881.09;4996895;28;20054;-80
2021/10/15 09:43:14;;;;;;;4.50;3.63;;;;;;;19.73;41.83;96880.88;5016128;28;20042;-85
2021/10/15 09:45:43;;;;;;;3.50;3.20;;;;;;;19.94;42.84;96878.63;5019147;28;20078;-82
2021/10/15 09:48:24;;;;;;;3.33;2.97;;;;;;;20.12;42.22;96881.13;5003314;28;20467;-81
2021/10/15 09:51:20;;;;;;;5.13;2.95;;;;;;;20.37;42.55;96875.47;4998307;28;20046;-81
2021/10/15 09:54:09;;;;;;;3.00;2.60;;;;;;;20.78;40.70;96875.44;4981027;28;20037;-81
2021/10/15 09:56:41;;;;;;;4.30;3.00;;;;;;;21.25;38.84;96875.09;5017071;28;20056;-83
2021/10/15 09:59:08;;;;;;;3.63;3.00;;;;;;;21.70;39.99;96881.31;5002382;28;20042;-85
2021/10/15 10:01:37;;;;;;;3.60;3.00;;;;;;;21.84;38.62;96877.22;5037280;23;20042;-79
2021/10/15 10:04:08;;;;;;;4.22;3.13;;;;;;;21.95;35.40;96884.31;5014127;28;20495;-79
2021/10/15 10:06:37;;;;;;;3.22;2.83;;;;;;;22.11;38.30;96882.63;5014420;28;20049;-79
2021/10/15 10:09:05;;;;;;;3.33;3.00;;;;;;;22.38;35.88;96864.06;5014493;28;20451;-79
2021/10/15 10:11:33;;;;;;;3.88;2.85;;;;;;;22.88;35.76;96869.31;5014200;28;20057;-79
2021/10/15 10:14:16;;;;;;;3.80;3.40;;;;;;;23.29;36.54;96874.97;5014196;28;20080;-79
2021/10/15 10:16:45;;;;;;;4.78;3.22;;;;;;;23.26;36.29;96876.25;5014122;28;20042;-79
2021/10/15 10:19:16;;;;;;;7.70;4.45;;;;;;;23.17;36.82;96878.59;5013404;28;20050;-79
2021/10/15 10:21:45;;;;;;;7.18;5.03;;;;;;;23.19;35.43;96887.13;5013894;28;20053;-79
2021/10/15 10:24:17;;;;;;;3.08;2.72;;;;;;;23.24;33.93;96873.03;5013822;28;20046;-79
2021/10/15 10:26:46;;;;;;;4.22;3.40;;;;;;;23.29;34.12;96875.75;5014003;28;20049;-79
2021/10/15 10:29:14;;;;;;;3.40;2.90;;;;;;;23.26;35.28;96862.94;5013867;28;20062;-79
2021/10/15 10:31:42;;;;;;;2.80;2.60;;;;;;;23.27;34.92;96872.53;5013989;28;20049;-79
2021/10/15 10:34:14;;;;;;;5.38;3.15;;;;;;;23.41;34.41;96863.03;5013856;28;20050;-79
2021/10/15 10:36:43;;;;;;;5.88;2.95;;;;;;;23.58;33.77;96859.41;5013659;28;20058;-79
2021/10/15 10:39:27;;;;;;;2.65;2.45;;;;;;;23.78;33.94;96869.38;5013335;28;20455;-79
2021/10/15 10:42:02;;;;;;;2.22;2.03;;;;;;;24.04;33.04;96870.28;5013662;28;20396;-79
2021/10/15 10:44:30;;;;;;;3.40;2.50;;;;;;;24.25;32.72;96863.97;5013544;28;20045;-79
2021/10/15 10:47:11;;;;;;;3.30;2.65;;;;;;;24.41;32.50;96859.47;5013550;28;20053;-79
2021/10/15 10:49:39;;;;;;;2.95;2.22;;;;;;;24.59;33.60;96860.84;5013265;28;20054;-79
2021/10/15 10:52:15;;;;;;;3.03;2.47;;;;;;;24.70;30.57;96861.66;5013817;28;20050;-79
2021/10/15 10:54:45;;;;;;;3.22;2.38;;;;;;;24.76;32.75;96865.94;5013817;28;20045;-79
2021/10/15 10:57:29;;;;;;;2.95;2.65;;;;;;;24.85;34.29;96868.88;5013454;28;20064;-79
2021/10/15 11:00:22;;;;;;;3.15;2.47;;;;;;;25.00;33.07;96865.41;5011418;28;20049;-79
2021/10/15 11:02:52;;;;;;;3.20;2.30;;;;;;;25.17;32.48;96865.13;5013571;28;20053;-79
2021/10/15 11:05:31;;;;;;;6.25;3.85;;;;;;;25.26;31.88;96863.53;5013748;28;20046;-79
2021/10/15 11:08:31;;;;;;;5.38;4.18;;;;;;;25.24;31.29;96855.00;5013402;28;20065;-79
2021/10/15 11:11:44;;;;;;;3.50;3.20;;;;;;;25.22;31.27;96846.47;5013257;28;20060;-79
2021/10/15 11:14:22;;;;;;;;;;;;;;;25.24;32.83;96844.31;5013412;28;20423;-79
2021/10/15 11:16:49;;;;;;;2.63;2.40;;;;;;;25.15;33.98;96841.38;5013067;28;19925;-79
2021/10/15 11:19:19;;;;;;;2.97;2.45;;;;;;;25.11;32.24;96837.63;5012981;28;20045;-79
2021/10/15 11:21:47;;;;;;;2.47;2.28;;;;;;;25.26;32.72;96834.97;5013406;28;20050;-79
2021/10/15 11:24:16;;;;;;;3.00;2.70;;;;;;;25.44;31.62;96836.25;5013120;28;20415;-79
2021/10/15 11:26:43;;;;;;;2.42;2.20;;;;;;;25.58;31.43;96827.66;5013029;28;20050;-79
2021/10/15 11:29:11;;;;;;;2.97;2.38;;;;;;;25.66;30.96;96824.44;5014245;28;20060;-79
2021/10/15 11:31:38;;;;;;;2.92;2.10;;;;;;;25.78;32.31;96814.25;5012967;28;20053;-79
2021/10/15 11:34:10;;;;;;;2.38;2.15;;;;;;;25.99;32.04;96816.84;5013642;28;20225;-79
2021/10/15 11:36:39;;;;;;;2.00;1.85;;;;;;;26.19;32.33;96814.03;5012843;28;20054;-79
2021/10/15 11:39:07;;;;;;;2.83;2.40;;;;;;;26.27;29.81;96808.09;5012333;28;20053;-80
2021/10/15 11:41:48;;;;;;;2.58;2.10;;;;;;;26.36;30.29;96815.56;5012746;28;20050;-79
2021/10/15 11:44:15;;;;;;;2.67;2.47;;;;;;;26.40;29.34;96813.91;5013075;28;20405;-79
2021/10/15 11:46:43;;;;;;;2.60;2.38;;;;;;;26.40;30.42;96803.22;5012765;28;20073;-79
2021/10/15 11:49:10;;;;;;;2.10;1.90;;;;;;;26.47;30.75;96801.81;5012411;28;20483;-79
2021/10/15 11:51:38;;;;;;;2.60;2.40;;;;;;;26.51;31.17;96799.41;5012591;28;20057;-79
2021/10/15 11:54:05;;;;;;;3.00;2.20;;;;;;;26.45;29.55;96795.16;5012941;28;20078;-79
2021/10/15 11:56:35;;;;;;;2.25;2.05;;;;;;;26.26;30.41;96795.00;5012579;28;20137;-79
2021/10/15 11:59:07;;;;;;;4.28;2.53;;;;;;;26.00;29.33;96794.38;5012279;28;20145;-79